Time;durP1;ratioP1;P1;durP2;ratioP2;P2;SDS_P1;SDS_P2;PMS_P1;PMS_P2;Temp;Humidity;BMP_temperature;BMP_pressure;BME280_temperature;BME280_humidity;BME280_pressure;Samples;Min_cycle;Max_cycle;Signal;HPM_P1;HPM_P2
2023/03/10 00:00:43;;;;;;;2.27;1.00;;;8.60;99.90;;;;;;4990304;28;20513;-70
2023/03/10 00:03:09;;;;;;;5.53;1.63;;;8.60;99.90;;;;;;4988620;28;20510;-70
2023/03/10 00:05:38;;;;;;;6.60;1.73;;;8.60;99.90;;;;;;4988841;28;20652;-70
2023/03/10 00:08:05;;;;;;;2.00;0.80;;;8.70;99.90;;;;;;4990282;28;20442;-70
2023/03/10 00:10:30;;;;;;;2.77;0.90;;;8.60;99.90;;;;;;4990564;28;20565;-70
2023/03/10 00:12:56;;;;;;;2.10;0.90;;;8.60;99.90;;;;;;4989657;28;20855;-69
2023/03/10 00:15:22;;;;;;;3.20;1.20;;;8.50;99.90;;;;;;4990216;28;20180;-69
2023/03/10 00:17:54;;;;;;;1.30;0.70;;;8.50;99.90;;;;;;4990189;28;20883;-70
2023/03/10 00:20:21;;;;;;;2.67;1.30;;;8.50;99.90;;;;;;4990878;28;20184;-70
2023/03/10 00:22:46;;;;;;;9.50;1.47;;;8.40;99.90;;;;;;4990297;28;20426;-70
2023/03/10 00:25:14;;;;;;;11.00;1.57;;;8.40;99.90;;;;;;4990256;28;20934;-70
2023/03/10 00:27:40;;;;;;;3.40;1.53;;;8.30;99.90;;;;;;4990269;28;20180;-70
2023/03/10 00:30:06;;;;;;;11.33;2.17;;;8.20;99.90;;;;;;4993974;28;20422;-70
2023/03/10 00:32:34;;;;;;;4.50;1.47;;;8.30;99.90;;;;;;4996268;28;20442;-70
2023/03/10 00:35:00;;;;;;;1.50;0.83;;;8.20;99.90;;;;;;4988607;28;20462;-70
2023/03/10 00:37:26;;;;;;;4.07;1.10;;;8.20;99.90;;;;;;4990343;28;20411;-70
2023/03/10 00:39:52;;;;;;;2.70;1.57;;;8.20;99.90;;;;;;4996045;28;20191;-70
2023/03/10 00:42:18;;;;;;;1.77;0.97;;;8.20;99.90;;;;;;4994544;28;20194;-71
2023/03/10 00:44:43;;;;;;;3.23;1.30;;;8.20;99.90;;;;;;4997719;28;20419;-70
2023/03/10 00:47:09;;;;;;;8.83;1.50;;;8.20;99.90;;;;;;4995685;28;20546;-71
2023/03/10 00:49:35;;;;;;;1.40;0.80;;;8.20;99.90;;;;;;4994080;28;20187;-70
2023/03/10 00:52:00;;;;;;;5.20;1.03;;;8.30;99.90;;;;;;4993836;28;20302;-70
2023/03/10 00:54:26;;;;;;;1.93;0.90;;;8.20;99.90;;;;;;4994688;28;20248;-71
2023/03/10 00:56:51;;;;;;;2.37;0.80;;;8.30;99.90;;;;;;4993631;28;20176;-70
2023/03/10 00:59:17;;;;;;;4.90;1.10;;;8.30;99.90;;;;;;5005138;28;20190;-71
2023/03/10 01:01:43;;;;;;;3.40;1.07;;;8.30;99.90;;;;;;4994357;28;20183;-71
2023/03/10 01:04:13;;;;;;;8.77;1.60;;;8.20;99.90;;;;;;4991548;28;20226;-71
2023/03/10 01:06:39;;;;;;;6.17;1.30;;;8.20;99.90;;;;;;4991699;28;20195;-70
2023/03/10 01:09:06;;;;;;;5.93;1.33;;;8.10;99.90;;;;;;4991397;28;20730;-70
2023/03/10 01:11:32;;;;;;;3.03;1.00;;;8.10;99.90;;;;;;4993988;28;20209;-71
2023/03/10 01:14:00;;;;;;;3.93;1.23;;;8.10;99.90;;;;;;4992786;28;20458;-71
2023/03/10 01:16:27;;;;;;;4.30;0.97;;;8.00;99.90;;;;;;4994203;28;20419;-71
2023/03/10 01:18:53;;;;;;;1.97;0.87;;;8.00;99.90;;;;;;4994254;28;20888;-70
2023/03/10 01:21:22;;;;;;;1.20;0.50;;;8.00;99.90;;;;;;4993682;28;20442;-70
2023/03/10 01:23:48;;;;;;;7.80;0.90;;;8.00;99.90;;;;;;4993392;28;20183;-71
2023/03/10 01:26:14;;;;;;;1.93;0.70;;;8.10;99.90;;;;;;4993261;28;20518;-71
2023/03/10 01:28:40;;;;;;;3.93;0.90;;;8.10;99.90;;;;;;4992423;28;20526;-71
2023/03/10 01:31:06;;;;;;;6.53;0.90;;;8.10;99.90;;;;;;4993938;28;20245;-71
2023/03/10 01:33:38;;;;;;;1.20;0.50;;;8.20;99.90;;;;;;4992219;28;20180;-71
2023/03/10 01:36:18;;;;;;;2.37;1.00;;;8.10;99.90;;;;;;4987135;28;20806;-71
2023/03/10 01:38:45;;;;;;;2.00;0.77;;;8.20;99.90;;;;;;4992443;28;20729;-71
2023/03/10 01:41:11;;;;;;;1.70;0.67;;;8.20;99.90;;;;;;4991498;28;20828;-71
2023/03/10 01:43:42;;;;;;;3.60;1.00;;;8.30;99.90;;;;;;4990418;28;20431;-71
2023/03/10 01:46:26;;;;;;;3.00;1.10;;;8.30;99.90;;;;;;4991860;28;20477;-71
2023/03/10 01:48:53;;;;;;;2.70;0.83;;;8.50;99.90;;;;;;4992615;28;20426;-71
2023/03/10 01:51:20;;;;;;;9.13;1.90;;;8.50;99.90;;;;;;4993427;28;20462;-71
2023/03/10 01:53:46;;;;;;;2.40;0.90;;;8.50;99.90;;;;;;4991404;28;20419;-70
2023/03/10 01:56:12;;;;;;;1.70;0.90;;;8.60;99.90;;;;;;4992592;28;20447;-70
2023/03/10 01:58:43;;;;;;;1.63;0.70;;;8.60;99.90;;;;;;4991661;28;20454;-71
2023/03/10 02:01:10;;;;;;;1.83;0.80;;;8.50;99.90;;;;;;4991557;28;20427;-70
2023/03/10 02:03:48;;;;;;;1.20;0.63;;;8.50;99.90;;;;;;4993140;28;20428;-70
2023/03/10 02:06:18;;;;;;;3.23;0.60;;;8.40;99.90;;;;;;4992158;28;20767;-71
2023/03/10 02:08:50;;;;;;;1.33;0.60;;;8.40;99.90;;;;;;4992292;28;20414;-70
2023/03/10 02:11:17;;;;;;;1.80;0.93;;;8.30;99.90;;;;;;4992396;28;20474;-71
2023/03/10 02:13:43;;;;;;;1.60;0.80;;;8.20;99.90;;;;;;4991491;28;20419;-71
2023/03/10 02:16:08;;;;;;;3.43;0.83;;;8.20;99.90;;;;;;4992242;28;20957;-70
2023/03/10 02:18:34;;;;;;;4.77;1.50;;;8.10;99.90;;;;;;4996331;28;20202;-70
2023/03/10 02:21:06;;;;;;;2.40;0.93;;;7.90;99.90;;;;;;4995372;28;20505;-70
2023/03/10 02:23:46;;;;;;;5.00;0.90;;;7.90;99.90;;;;;;4991698;28;20176;-70
2023/03/10 02:26:17;;;;;;;1.63;0.90;;;7.80;99.90;;;;;;4991909;28;20419;-70
2023/03/10 02:28:44;;;;;;;3.10;0.70;;;7.80;99.90;;;;;;4985855;28;20454;-70
2023/03/10 02:31:11;;;;;;;1.70;0.70;;;7.70;99.90;;;;;;4991994;28;20493;-70
2023/03/10 02:33:37;;;;;;;1.60;0.77;;;7.70;99.90;;;;;;4991465;28;20412;-69
2023/03/10 02:36:23;;;;;;;2.37;0.97;;;7.70;99.90;;;;;;4973663;28;20438;-70
2023/03/10 02:38:48;;;;;;;1.80;0.90;;;7.60;99.90;;;;;;4974011;28;21023;-70
2023/03/10 02:41:29;;;;;;;1.47;0.90;;;7.60;99.90;;;;;;4991758;28;20454;-70
2023/03/10 02:43:58;;;;;;;3.20;0.87;;;7.60;99.90;;;;;;4991053;28;20187;-70
2023/03/10 02:46:25;;;;;;;1.30;0.60;;;7.60;99.90;;;;;;4991573;28;20497;-70
2023/03/10 02:48:51;;;;;;;1.10;0.50;;;7.60;99.90;;;;;;4991581;28;20911;-70
2023/03/10 02:51:27;;;;;;;5.27;0.73;;;7.50;99.90;;;;;;4991562;28;20469;-70
2023/03/10 02:53:53;;;;;;;1.93;0.70;;;7.60;99.90;;;;;;4991580;28;20191;-70
2023/03/10 02:56:18;;;;;;;1.60;0.87;;;7.50;99.90;;;;;;4995089;28;20463;-70
2023/03/10 02:58:44;;;;;;;1.63;0.80;;;7.50;99.90;;;;;;4991164;28;20239;-69
2023/03/10 03:01:09;;;;;;;1.20;0.57;;;7.50;99.90;;;;;;4991157;28;20183;-70
2023/03/10 03:03:35;;;;;;;2.07;0.93;;;7.50;99.90;;;;;;4990837;28;20187;-69
2023/03/10 03:06:01;;;;;;;2.37;0.93;;;7.50;99.90;;;;;;4991489;28;20633;-69
2023/03/10 03:08:27;;;;;;;1.67;0.47;;;7.50;99.90;;;;;;4990943;28;20199;-69
2023/03/10 03:10:53;;;;;;;1.20;0.60;;;7.50;99.90;;;;;;4991454;28;20227;-68
2023/03/10 03:13:20;;;;;;;1.53;0.57;;;7.50;99.90;;;;;;4990164;28;20511;-69
2023/03/10 03:15:46;;;;;;;1.70;0.60;;;7.50;99.90;;;;;;4991002;28;20506;-68
2023/03/10 03:18:12;;;;;;;1.23;0.60;;;7.40;99.90;;;;;;4991140;28;20434;-69
2023/03/10 03:20:39;;;;;;;2.50;0.70;;;7.40;99.90;;;;;;4991210;28;20427;-69
2023/03/10 03:23:05;;;;;;;1.23;0.53;;;7.40;99.90;;;;;;4990457;28;20659;-69
2023/03/10 03:25:34;;;;;;;1.20;0.50;;;7.40;99.90;;;;;;4991210;28;20430;-69
2023/03/10 03:28:00;;;;;;;4.73;0.90;;;7.40;99.90;;;;;;4990556;28;20545;-69
2023/03/10 03:30:27;;;;;;;2.63;0.80;;;7.40;99.90;;;;;;4990882;28;20463;-69
2023/03/10 03:32:53;;;;;;;1.10;0.50;;;7.40;99.90;;;;;;4990509;28;20303;-69
2023/03/10 03:35:24;;;;;;;1.07;0.40;;;7.40;99.90;;;;;;4990259;28;20435;-69
2023/03/10 03:37:51;;;;;;;1.27;0.60;;;7.40;99.90;;;;;;4991707;28;20498;-68
2023/03/10 03:40:16;;;;;;;2.70;0.60;;;7.40;99.90;;;;;;4990741;28;20447;-68
2023/03/10 03:42:44;;;;;;;1.53;0.67;;;7.40;99.90;;;;;;4989978;28;20419;-68
2023/03/10 03:45:14;;;;;;;1.20;0.50;;;7.40;99.90;;;;;;4998234;28;20702;-68
2023/03/10 03:47:40;;;;;;;1.10;0.43;;;7.40;99.90;;;;;;4991008;28;20506;-69
2023/03/10 03:50:07;;;;;;;1.10;0.50;;;7.40;99.90;;;;;;4990951;28;20529;-68
2023/03/10 03:52:33;;;;;;;2.27;1.43;;;7.40;99.90;;;;;;4990245;28;20438;-68
2023/03/10 03:54:59;;;;;;;1.57;0.60;;;7.30;99.90;;;;;;4990925;28;20423;-68
2023/03/10 03:57:24;;;;;;;2.43;0.90;;;7.30;99.90;;;;;;4992902;28;20186;-68
2023/03/10 03:59:51;;;;;;;2.10;1.00;;;7.30;99.90;;;;;;4995148;28;20179;-68
2023/03/10 04:02:16;;;;;;;1.47;0.53;;;7.30;99.90;;;;;;4989798;28;20187;-68
2023/03/10 04:04:42;;;;;;;1.10;0.40;;;7.40;99.90;;;;;;4990646;28;20767;-69
2023/03/10 04:07:07;;;;;;;1.43;0.60;;;7.40;99.90;;;;;;4990148;28;20184;-68
2023/03/10 04:09:33;;;;;;;2.07;0.70;;;7.40;99.90;;;;;;4996934;28;20669;-68
2023/03/10 04:11:59;;;;;;;4.93;0.67;;;7.30;99.90;;;;;;4989353;28;20274;-69
2023/03/10 04:14:24;;;;;;;1.20;0.60;;;7.40;99.90;;;;;;4990238;28;20262;-68
2023/03/10 04:16:50;;;;;;;1.40;0.60;;;7.30;99.90;;;;;;4993346;28;20183;-68
2023/03/10 04:19:15;;;;;;;6.83;0.80;;;7.30;99.90;;;;;;4994393;28;20192;-68
2023/03/10 04:21:41;;;;;;;1.33;0.67;;;7.30;99.90;;;;;;4993452;28;20255;-68
2023/03/10 04:24:07;;;;;;;1.10;0.40;;;7.40;99.90;;;;;;4994338;28;20640;-68
2023/03/10 04:26:32;;;;;;;1.80;0.70;;;7.40;99.90;;;;;;4997927;28;20641;-68
2023/03/10 04:28:58;;;;;;;1.33;0.60;;;7.40;99.90;;;;;;4997548;28;20179;-68
2023/03/10 04:31:24;;;;;;;1.27;0.70;;;7.40;99.90;;;;;;4993682;28;20458;-69
2023/03/10 04:33:51;;;;;;;2.80;0.93;;;7.40;99.90;;;;;;4994134;28;20214;-68
2023/03/10 04:36:17;;;;;;;2.27;1.07;;;7.40;99.90;;;;;;4993886;28;20518;-69
2023/03/10 04:38:43;;;;;;;2.47;0.70;;;7.40;99.90;;;;;;4999058;28;20415;-68
2023/03/10 04:41:08;;;;;;;2.23;0.63;;;7.40;99.90;;;;;;4993774;28;20441;-68
2023/03/10 04:43:35;;;;;;;4.30;0.73;;;7.50;99.90;;;;;;4999460;28;20211;-69
2023/03/10 04:46:00;;;;;;;4.10;0.83;;;7.50;99.90;;;;;;4994264;28;20183;-68
2023/03/10 04:48:26;;;;;;;1.10;0.43;;;7.50;99.90;;;;;;4994654;28;20963;-69
2023/03/10 04:50:55;;;;;;;1.50;0.57;;;7.60;99.90;;;;;;4996303;28;20210;-69
2023/03/10 04:53:22;;;;;;;1.10;0.40;;;7.60;99.90;;;;;;4992718;28;20176;-69
2023/03/10 04:55:47;;;;;;;1.20;0.60;;;7.60;99.90;;;;;;4993731;28;20411;-69
2023/03/10 04:58:13;;;;;;;1.50;0.60;;;7.50;99.90;;;;;;4993281;28;20415;-69
2023/03/10 05:00:39;;;;;;;4.90;0.87;;;7.40;99.90;;;;;;4994498;28;20529;-69
2023/03/10 05:03:05;;;;;;;5.00;0.80;;;7.40;99.90;;;;;;4993133;28;20184;-69
2023/03/10 05:05:33;;;;;;;1.40;0.70;;;7.30;99.90;;;;;;4992303;28;20511;-69
2023/03/10 05:07:59;;;;;;;2.20;0.73;;;7.30;99.90;;;;;;4993393;28;20180;-69
2023/03/10 05:10:24;;;;;;;2.13;0.70;;;7.30;99.90;;;;;;4992472;28;20803;-69
2023/03/10 05:12:50;;;;;;;1.20;0.50;;;7.20;99.90;;;;;;4992651;28;20533;-69
2023/03/10 05:15:16;;;;;;;1.10;0.50;;;7.30;99.90;;;;;;4992645;28;20196;-69
2023/03/10 05:17:41;;;;;;;1.40;0.60;;;7.30;99.90;;;;;;4993516;28;20264;-69
2023/03/10 05:20:08;;;;;;;1.20;0.50;;;7.30;99.90;;;;;;5000373;28;20238;-69
2023/03/10 05:22:36;;;;;;;1.47;0.60;;;7.20;99.90;;;;;;4992992;28;20548;-69
2023/03/10 05:25:02;;;;;;;1.57;0.60;;;7.20;99.90;;;;;;4993244;28;20416;-69
2023/03/10 05:27:27;;;;;;;1.57;0.80;;;7.20;99.90;;;;;;4992912;28;20421;-69
2023/03/10 05:29:53;;;;;;;2.70;0.60;;;7.20;99.90;;;;;;4992785;28;20200;-69
2023/03/10 05:32:18;;;;;;;1.30;0.60;;;7.30;99.90;;;;;;4992735;28;20216;-69
2023/03/10 05:34:44;;;;;;;1.20;0.60;;;7.40;99.90;;;;;;4994704;28;20187;-69
2023/03/10 05:37:10;;;;;;;3.63;1.63;;;7.50;99.90;;;;;;4992781;28;20212;-69
2023/03/10 05:39:35;;;;;;;2.80;1.17;;;7.50;99.90;;;;;;4992905;28;20661;-69
2023/03/10 05:42:01;;;;;;;1.50;0.70;;;7.60;99.90;;;;;;4992014;28;20195;-69
2023/03/10 05:44:26;;;;;;;1.20;0.60;;;7.60;99.90;;;;;;4992674;28;20191;-69
2023/03/10 05:46:52;;;;;;;1.50;0.70;;;7.60;99.90;;;;;;4992940;28;20191;-69
2023/03/10 05:49:18;;;;;;;2.27;0.57;;;7.60;99.90;;;;;;4993544;28;20250;-69
2023/03/10 05:51:43;;;;;;;6.20;0.83;;;7.60;99.90;;;;;;4992933;28;20231;-69
2023/03/10 05:54:09;;;;;;;3.67;0.90;;;7.60;99.90;;;;;;4992492;28;20183;-70
2023/03/10 05:56:34;;;;;;;1.67;0.83;;;7.50;99.90;;;;;;4997347;28;20180;-68
2023/03/10 05:59:00;;;;;;;1.40;0.90;;;7.50;99.90;;;;;;4977052;28;20175;-68
2023/03/10 06:01:26;;;;;;;3.63;1.10;;;7.40;99.90;;;;;;4992219;28;20183;-67
2023/03/10 06:03:51;;;;;;;2.33;0.80;;;7.40;99.90;;;;;;4991262;28;20179;-68
2023/03/10 06:06:17;;;;;;;1.20;0.50;;;7.30;99.90;;;;;;4992206;28;20218;-67
2023/03/10 06:08:43;;;;;;;1.20;0.53;;;7.30;99.90;;;;;;4992500;28;20183;-68
2023/03/10 06:11:08;;;;;;;2.40;0.90;;;7.30;99.90;;;;;;4992416;28;20203;-69
2023/03/10 06:13:34;;;;;;;5.00;1.00;;;7.30;99.90;;;;;;4991221;28;20211;-70
2023/03/10 06:16:03;;;;;;;1.43;0.70;;;7.20;99.90;;;;;;4992134;28;20186;-69
2023/03/10 06:18:29;;;;;;;1.13;0.57;;;7.20;99.90;;;;;;4991969;28;20270;-69
2023/03/10 06:20:55;;;;;;;1.10;0.40;;;7.10;99.90;;;;;;4991876;28;20838;-69
2023/03/10 06:23:22;;;;;;;1.20;0.50;;;7.00;99.90;;;;;;4991445;28;20183;-69
2023/03/10 06:25:57;;;;;;;3.13;0.60;;;7.00;99.90;;;;;;4992190;28;20431;-69
2023/03/10 06:28:24;;;;;;;1.53;0.70;;;7.00;99.90;;;;;;4991322;28;20415;-69
2023/03/10 06:30:56;;;;;;;1.10;0.50;;;7.00;99.90;;;;;;4991774;28;20546;-69
2023/03/10 06:33:23;;;;;;;1.93;0.70;;;7.00;99.90;;;;;;4991076;28;20407;-68
2023/03/10 06:35:49;;;;;;;1.63;0.70;;;6.90;99.90;;;;;;4991315;28;20513;-68
2023/03/10 06:38:15;;;;;;;1.17;0.50;;;6.90;99.90;;;;;;4991262;28;20503;-68
2023/03/10 06:40:40;;;;;;;2.30;1.07;;;6.90;99.90;;;;;;4998526;28;20641;-69
2023/03/10 06:43:06;;;;;;;2.27;0.97;;;6.90;99.90;;;;;;4990597;28;20207;-69
2023/03/10 06:45:31;;;;;;;3.10;0.70;;;6.90;99.90;;;;;;4991316;28;20180;-69
2023/03/10 06:47:57;;;;;;;1.40;0.80;;;6.90;99.90;;;;;;4991477;28;20186;-69
2023/03/10 06:50:23;;;;;;;2.43;0.93;;;6.90;99.90;;;;;;4991463;28;20285;-69
2023/03/10 06:52:48;;;;;;;1.33;0.67;;;6.90;99.90;;;;;;4991281;28;20183;-69
2023/03/10 06:55:15;;;;;;;1.67;0.83;;;7.00;99.90;;;;;;4991427;28;20651;-69
2023/03/10 06:57:41;;;;;;;2.53;0.80;;;7.00;99.90;;;;;;4991177;28;20172;-69
2023/03/10 07:00:10;;;;;;;1.27;0.50;;;7.20;99.90;;;;;;4991602;28;20481;-70
2023/03/10 07:02:37;;;;;;;1.53;0.60;;;7.30;99.90;;;;;;4990768;28;20199;-70
2023/03/10 07:05:04;;;;;;;1.93;0.80;;;7.40;99.90;;;;;;4989872;28;20435;-70
2023/03/10 07:07:30;;;;;;;1.10;0.40;;;7.40;99.90;;;;;;4988724;28;20431;-70
2023/03/10 07:09:56;;;;;;;2.53;0.80;;;7.40;99.90;;;;;;4972874;28;20553;-69
2023/03/10 07:12:23;;;;;;;1.30;0.60;;;7.30;99.90;;;;;;4989568;28;20238;-69
2023/03/10 07:14:50;;;;;;;4.10;0.60;;;7.30;99.90;;;;;;4990545;28;20431;-69
2023/03/10 07:17:16;;;;;;;1.10;0.50;;;7.30;99.90;;;;;;4990458;28;20430;-69
2023/03/10 07:19:42;;;;;;;1.20;0.60;;;7.30;99.90;;;;;;4991274;28;20476;-69
2023/03/10 07:22:08;;;;;;;1.73;0.70;;;7.30;99.90;;;;;;4969428;28;20518;-69
2023/03/10 07:24:34;;;;;;;1.10;0.50;;;7.40;99.90;;;;;;4987384;28;20553;-71
2023/03/10 07:27:00;;;;;;;1.10;0.47;;;7.50;99.90;;;;;;4989316;28;20864;-70
2023/03/10 07:29:26;;;;;;;1.10;0.53;;;7.50;99.90;;;;;;4990338;28;20175;-70
2023/03/10 07:31:55;;;;;;;1.43;0.70;;;7.60;99.90;;;;;;4990300;28;21043;-70
2023/03/10 07:34:21;;;;;;;1.73;0.70;;;7.60;99.90;;;;;;4990270;28;20177;-69
2023/03/10 07:36:47;;;;;;;1.50;0.70;;;7.70;99.90;;;;;;4990774;28;20421;-70
2023/03/10 07:39:12;;;;;;;1.50;0.70;;;7.70;99.90;;;;;;4990907;28;20183;-70
2023/03/10 07:41:38;;;;;;;1.17;0.50;;;7.70;99.90;;;;;;4972714;28;20605;-69
2023/03/10 07:44:04;;;;;;;2.43;1.00;;;7.80;99.90;;;;;;4991020;28;20254;-71
2023/03/10 07:46:30;;;;;;;3.70;0.93;;;7.90;99.90;;;;;;4990279;28;20187;-70
2023/03/10 07:48:58;;;;;;;1.60;0.80;;;7.90;99.90;;;;;;4977142;28;20190;-70
2023/03/10 07:51:24;;;;;;;1.30;0.70;;;7.90;99.90;;;;;;4992593;28;20290;-70
2023/03/10 07:53:50;;;;;;;2.27;0.63;;;7.80;99.90;;;;;;4992588;28;20875;-70
2023/03/10 07:56:15;;;;;;;2.17;0.83;;;7.90;99.90;;;;;;4996266;28;20569;-69
2023/03/10 07:58:41;;;;;;;1.70;1.13;;;7.80;99.90;;;;;;4980638;28;20668;-69
2023/03/10 08:01:12;;;;;;;1.97;0.90;;;7.80;99.90;;;;;;4993677;28;20287;-69
2023/03/10 08:03:38;;;;;;;2.03;0.87;;;7.70;99.90;;;;;;4993097;28;20287;-69
2023/03/10 08:06:04;;;;;;;3.30;0.70;;;7.60;99.90;;;;;;4994063;28;20963;-69
2023/03/10 08:08:30;;;;;;;1.10;0.50;;;7.30;99.90;;;;;;4993310;28;20183;-69
2023/03/10 08:11:05;;;;;;;1.20;0.50;;;7.00;99.90;;;;;;4994959;28;20473;-68
2023/03/10 08:13:32;;;;;;;1.10;0.50;;;6.80;99.90;;;;;;4994055;28;20825;-66
2023/03/10 08:15:59;;;;;;;1.47;0.57;;;6.60;99.90;;;;;;4993158;28;20429;-67
2023/03/10 08:18:26;;;;;;;1.60;0.73;;;6.50;99.90;;;;;;4992183;28;20481;-67
2023/03/10 08:20:52;;;;;;;1.50;0.80;;;6.50;99.90;;;;;;4994417;28;20419;-67
2023/03/10 08:23:18;;;;;;;2.27;1.13;;;6.60;99.90;;;;;;4992900;28;20753;-67
2023/03/10 08:25:43;;;;;;;2.27;0.77;;;6.60;99.90;;;;;;4993163;28;20183;-68
2023/03/10 08:28:09;;;;;;;1.70;0.80;;;6.60;99.90;;;;;;4993373;28;20421;-69
2023/03/10 08:30:37;;;;;;;1.87;0.73;;;6.60;99.90;;;;;;4994744;28;20253;-68
2023/03/10 08:33:06;;;;;;;1.37;0.50;;;6.60;99.90;;;;;;4993030;28;20223;-69
2023/03/10 08:35:32;;;;;;;1.10;0.40;;;6.60;99.90;;;;;;4986199;28;20510;-68
2023/03/10 08:37:57;;;;;;;6.30;0.80;;;6.60;99.90;;;;;;4993842;28;20498;-69
2023/03/10 08:40:23;;;;;;;2.20;1.00;;;6.80;99.90;;;;;;5001332;28;20191;-68
2023/03/10 08:42:49;;;;;;;1.27;0.57;;;7.50;99.90;;;;;;4992676;28;20180;-69
2023/03/10 08:45:14;;;;;;;1.20;0.50;;;8.20;99.90;;;;;;4993047;28;20425;-69
2023/03/10 08:47:40;;;;;;;1.20;0.50;;;8.80;99.90;;;;;;4990370;28;20210;-71
2023/03/10 08:50:06;;;;;;;1.93;0.50;;;9.30;99.90;;;;;;4992954;28;20187;-70
2023/03/10 08:52:32;;;;;;;1.50;0.60;;;9.80;99.90;;;;;;4991364;28;20218;-70
2023/03/10 08:54:58;;;;;;;2.53;0.83;;;10.10;99.90;;;;;;4993118;28;20435;-70
2023/03/10 08:57:23;;;;;;;1.60;0.70;;;10.00;99.90;;;;;;4992888;28;20196;-70
2023/03/10 08:59:50;;;;;;;1.83;1.00;;;9.80;99.90;;;;;;4991603;28;20172;-70
2023/03/10 09:02:16;;;;;;;9.93;0.97;;;9.80;99.90;;;;;;4991386;28;20188;-67
2023/03/10 09:04:42;;;;;;;3.00;1.10;;;10.00;99.90;;;;;;4993200;28;20453;-69
2023/03/10 09:07:08;;;;;;;1.10;0.40;;;10.40;99.90;;;;;;4991855;28;20314;-70
2023/03/10 09:09:34;;;;;;;1.47;0.60;;;10.50;99.90;;;;;;4993370;28;20419;-69
2023/03/10 09:11:59;;;;;;;1.60;0.70;;;10.40;99.90;;;;;;4991729;28;20558;-69
2023/03/10 09:14:25;;;;;;;1.93;1.00;;;10.60;99.90;;;;;;4994127;28;20267;-69
2023/03/10 09:16:51;;;;;;;1.97;0.70;;;10.20;99.90;;;;;;4993062;28;20212;-69
2023/03/10 09:19:16;;;;;;;10.53;1.20;;;10.00;99.90;;;;;;4992888;28;20187;-69
2023/03/10 09:21:42;;;;;;;1.37;0.60;;;9.70;99.90;;;;;;4992194;28;20633;-69
2023/03/10 09:24:08;;;;;;;1.10;0.50;;;9.50;99.90;;;;;;4992824;28;20211;-69
2023/03/10 09:26:34;;;;;;;2.27;0.80;;;9.30;99.90;;;;;;4992929;28;20195;-69
2023/03/10 09:29:00;;;;;;;5.47;1.00;;;9.10;99.90;;;;;;4992427;28;20423;-70
2023/03/10 09:31:35;;;;;;;1.20;0.50;;;9.10;99.90;;;;;;4992032;28;20218;-70
2023/03/10 09:34:02;;;;;;;1.97;0.70;;;9.10;99.90;;;;;;4991183;28;20418;-70
2023/03/10 09:36:28;;;;;;;2.23;0.80;;;9.10;99.90;;;;;;4991252;28;20896;-69
2023/03/10 09:38:55;;;;;;;3.17;1.00;;;9.00;99.90;;;;;;4992993;28;20574;-69
2023/03/10 09:41:29;;;;;;;9.73;0.90;;;8.90;99.90;;;;;;4991732;28;20557;-69
2023/03/10 09:44:33;;;;;;;2.43;0.90;;;8.80;99.90;;;;;;4991359;28;20443;-69
2023/03/10 09:47:14;;;;;;;2.30;0.73;;;8.70;99.90;;;;;;4989782;28;20840;-69
2023/03/10 09:49:53;;;;;;;1.70;0.60;;;8.70;99.90;;;;;;4972728;28;20430;-69
2023/03/10 09:52:36;;;;;;;4.70;1.17;;;8.60;99.90;;;;;;4991302;28;20474;-69
2023/03/10 09:55:25;;;;;;;1.20;0.50;;;8.40;99.90;;;;;;4992060;28;20931;-69
2023/03/10 09:57:54;;;;;;;1.90;0.70;;;8.40;99.90;;;;;;4992065;28;20939;-70
2023/03/10 10:00:42;;;;;;;3.20;0.73;;;8.40;99.90;;;;;;4991640;28;20422;-69
2023/03/10 10:03:11;;;;;;;1.30;0.60;;;8.50;99.90;;;;;;4991407;28;20450;-69
2023/03/10 10:05:38;;;;;;;3.10;0.93;;;8.70;99.90;;;;;;4992479;28;20473;-69
2023/03/10 10:08:23;;;;;;;3.10;0.70;;;8.70;99.90;;;;;;4991883;28;20419;-69
2023/03/10 10:10:53;;;;;;;1.20;0.60;;;8.70;99.90;;;;;;4991098;28;20466;-69
2023/03/10 10:13:21;;;;;;;2.13;0.80;;;8.70;99.90;;;;;;4977572;28;20419;-69
2023/03/10 10:16:09;;;;;;;2.43;0.90;;;8.70;99.90;;;;;;4991149;28;20419;-69
2023/03/10 10:18:45;;;;;;;1.10;0.47;;;8.60;99.90;;;;;;4991886;28;20740;-69
2023/03/10 10:21:24;;;;;;;1.60;0.70;;;8.60;99.90;;;;;;4991293;28;20803;-68
2023/03/10 10:23:53;;;;;;;3.47;0.87;;;8.60;99.90;;;;;;4991106;28;20462;-69
2023/03/10 10:26:25;;;;;;;1.97;0.90;;;8.70;99.90;;;;;;4982549;28;20430;-69
2023/03/10 10:28:59;;;;;;;4.90;0.90;;;8.60;99.90;;;;;;4991353;28;20446;-69
2023/03/10 10:31:27;;;;;;;1.90;0.80;;;8.60;99.90;;;;;;4980930;28;20467;-69
2023/03/10 10:33:59;;;;;;;3.83;0.80;;;8.50;99.90;;;;;;4994448;28;20820;-69
2023/03/10 10:36:47;;;;;;;6.20;0.77;;;8.50;99.90;;;;;;4990918;28;20415;-69
2023/03/10 10:39:24;;;;;;;1.30;0.67;;;8.50;99.90;;;;;;4989031;28;20765;-69
2023/03/10 10:41:50;;;;;;;1.50;0.60;;;8.70;99.90;;;;;;4990233;28;20439;-69
2023/03/10 10:44:17;;;;;;;2.63;1.00;;;8.70;99.90;;;;;;4991234;28;20423;-69
2023/03/10 10:46:56;;;;;;;2.37;1.13;;;8.70;99.90;;;;;;4990539;28;20188;-69
2023/03/10 10:49:26;;;;;;;1.40;0.50;;;8.70;99.90;;;;;;4992084;28;20461;-69
2023/03/10 10:51:56;;;;;;;1.20;0.50;;;8.80;99.90;;;;;;4990475;28;20471;-69
2023/03/10 10:54:36;;;;;;;1.93;0.83;;;8.80;99.90;;;;;;4987889;28;20513;-67
2023/03/10 10:57:02;;;;;;;1.70;0.60;;;8.90;99.90;;;;;;4994948;28;20914;-67
2023/03/10 10:59:33;;;;;;;1.10;0.50;;;8.90;99.90;;;;;;4990352;28;20550;-67
2023/03/10 11:02:00;;;;;;;1.10;0.40;;;8.90;99.90;;;;;;4989703;28;20196;-67
2023/03/10 11:04:39;;;;;;;2.37;0.63;;;8.90;99.90;;;;;;4990019;28;20888;-68
2023/03/10 11:07:22;;;;;;;2.17;0.73;;;8.90;99.90;;;;;;4990420;28;20892;-68
2023/03/10 11:09:48;;;;;;;5.53;0.80;;;8.90;99.90;;;;;;4990997;28;20478;-70
2023/03/10 11:12:44;;;;;;;3.80;0.50;;;8.90;99.90;;;;;;4989581;28;20896;-69
2023/03/10 11:15:16;;;;;;;2.33;0.60;;;8.90;99.90;;;;;;4990738;28;20339;-70
2023/03/10 11:17:50;;;;;;;3.10;0.77;;;8.80;99.90;;;;;;4990475;28;20430;-68
2023/03/10 11:20:37;;;;;;;1.10;0.50;;;8.80;99.90;;;;;;4991033;28;20426;-68
2023/03/10 11:23:09;;;;;;;3.03;1.20;;;8.70;99.90;;;;;;4972438;28;20438;-69
2023/03/10 11:25:48;;;;;;;3.53;0.60;;;8.70;99.90;;;;;;4990877;28;20442;-68
2023/03/10 11:28:30;;;;;;;5.37;1.37;;;8.80;99.90;;;;;;4990501;28;20429;-69
2023/03/10 11:31:14;;;;;;;7.60;0.97;;;8.70;99.90;;;;;;4990914;28;20505;-69
2023/03/10 11:33:42;;;;;;;3.47;0.70;;;8.70;99.90;;;;;;4990656;28;20434;-69
2023/03/10 11:36:40;;;;;;;3.67;1.17;;;8.80;99.90;;;;;;4996956;28;20525;-69
2023/03/10 11:39:38;;;;;;;1.80;1.00;;;8.80;99.90;;;;;;4990917;28;20561;-69
2023/03/10 11:42:30;;;;;;;1.23;0.63;;;8.80;99.90;;;;;;4989387;28;20531;-69
2023/03/10 11:45:23;;;;;;;2.63;0.70;;;8.80;99.90;;;;;;4990090;28;20466;-69
2023/03/10 11:47:58;;;;;;;5.47;1.60;;;8.80;99.90;;;;;;4986516;28;20426;-69
2023/03/10 11:50:46;;;;;;;2.43;1.27;;;8.90;99.90;;;;;;4990347;28;20445;-69
2023/03/10 11:53:39;;;;;;;2.03;0.80;;;9.00;99.90;;;;;;4983900;28;20573;-69
2023/03/10 11:56:08;;;;;;;2.60;1.03;;;9.10;99.90;;;;;;4993506;28;20565;-69
2023/03/10 11:59:08;;;;;;;2.80;0.70;;;9.20;99.90;;;;;;4984371;28;20470;-69
2023/03/10 12:02:06;;;;;;;1.50;0.60;;;9.40;99.90;;;;;;4987773;28;20457;-69
2023/03/10 12:05:06;;;;;;;2.90;0.80;;;9.30;99.90;;;;;;4990640;28;20454;-69
2023/03/10 12:07:39;;;;;;;1.20;0.60;;;9.30;99.90;;;;;;4984145;28;20436;-69
2023/03/10 12:10:11;;;;;;;1.77;0.93;;;9.40;99.90;;;;;;4989573;28;20912;-69
2023/03/10 12:12:39;;;;;;;1.47;0.50;;;9.30;99.90;;;;;;4989604;28;20483;-69
2023/03/10 12:15:17;;;;;;;1.10;0.40;;;9.20;99.90;;;;;;4991085;28;20502;-72
2023/03/10 12:17:44;;;;;;;12.83;0.83;;;9.00;99.90;;;;;;4987607;28;20430;-68
2023/03/10 12:20:13;;;;;;;1.67;0.60;;;9.00;99.90;;;;;;4991258;28;20419;-69
2023/03/10 12:22:52;;;;;;;1.10;0.50;;;9.00;99.90;;;;;;4990064;28;20432;-71
2023/03/10 12:25:31;;;;;;;1.20;0.67;;;8.80;99.90;;;;;;4991126;28;20437;-69
2023/03/10 12:28:15;;;;;;;4.50;0.97;;;8.90;99.90;;;;;;4990434;28;20958;-68
2023/03/10 12:30:56;;;;;;;1.57;0.60;;;8.90;99.90;;;;;;4987898;28;20500;-69
2023/03/10 12:33:32;;;;;;;1.33;0.50;;;8.90;99.90;;;;;;4989024;28;20467;-68
2023/03/10 12:36:19;;;;;;;1.20;0.50;;;9.00;99.90;;;;;;4989839;28;20502;-69
2023/03/10 12:39:00;;;;;;;2.80;1.23;;;9.00;99.90;;;;;;4987975;28;20426;-68
2023/03/10 12:41:26;;;;;;;2.57;0.90;;;9.10;99.90;;;;;;4986911;28;20458;-71
2023/03/10 12:43:57;;;;;;;1.10;0.40;;;8.90;99.90;;;;;;4985260;28;20434;-70
2023/03/10 12:46:44;;;;;;;1.10;0.40;;;8.80;99.90;;;;;;4992928;28;20981;-69
2023/03/10 12:49:15;;;;;;;1.30;0.60;;;8.70;99.90;;;;;;4990707;28;20450;-70
2023/03/10 12:51:47;;;;;;;1.30;0.50;;;8.60;99.90;;;;;;4992371;28;20493;-70
2023/03/10 12:54:48;;;;;;;1.10;0.40;;;8.50;99.90;;;;;;4975904;28;20482;-69
2023/03/10 12:57:31;;;;;;;1.10;0.40;;;8.50;99.90;;;;;;4947766;28;20438;-68
2023/03/10 13:00:11;;;;;;;1.10;0.40;;;8.40;99.90;;;;;;4993388;28;20427;-68
2023/03/10 13:02:43;;;;;;;1.10;0.40;;;8.30;99.90;;;;;;4991593;28;20541;-67
2023/03/10 13:05:22;;;;;;;2.70;0.70;;;8.10;99.90;;;;;;4992992;28;20419;-67
2023/03/10 13:07:52;;;;;;;1.47;0.50;;;8.00;99.90;;;;;;4986115;28;20427;-67
2023/03/10 13:10:21;;;;;;;1.10;0.50;;;7.90;99.90;;;;;;4991448;28;20522;-67